sensor_id;sensor_type;location;lat;lon;timestamp;P1;durP1;ratioP1;P2;durP2;ratioP2
54191;SDS011;40101;53.002;6.488;2023-02-03T00:01:14;5.40;;;1.27;;
54191;SDS011;40101;53.002;6.488;2023-02-03T00:03:40;8.55;;;2.05;;
54191;SDS011;40101;53.002;6.488;2023-02-03T00:06:06;9.13;;;1.88;;
54191;SDS011;40101;53.002;6.488;2023-02-03T00:08:32;11.90;;;2.50;;
54191;SDS011;40101;53.002;6.488;2023-02-03T00:10:58;8.52;;;2.20;;
54191;SDS011;40101;53.002;6.488;2023-02-03T00:13:24;10.43;;;2.50;;
54191;SDS011;40101;53.002;6.488;2023-02-03T00:15:50;5.97;;;1.70;;
54191;SDS011;40101;53.002;6.488;2023-02-03T00:18:16;6.88;;;2.50;;
54191;SDS011;40101;53.002;6.488;2023-02-03T00:20:42;7.90;;;1.90;;
54191;SDS011;40101;53.002;6.488;2023-02-03T00:23:09;9.85;;;1.58;;
54191;SDS011;40101;53.002;6.488;2023-02-03T00:25:36;7.50;;;2.15;;
54191;SDS011;40101;53.002;6.488;2023-02-03T00:28:02;8.63;;;2.33;;
54191;SDS011;40101;53.002;6.488;2023-02-03T00:30:29;10.73;;;1.73;;
54191;SDS011;40101;53.002;6.488;2023-02-03T00:32:55;6.13;;;1.95;;
54191;SDS011;40101;53.002;6.488;2023-02-03T00:35:21;7.15;;;2.05;;
54191;SDS011;40101;53.002;6.488;2023-02-03T00:37:53;6.60;;;2.22;;
54191;SDS011;40101;53.002;6.488;2023-02-03T00:40:21;8.55;;;3.40;;
54191;SDS011;40101;53.002;6.488;2023-02-03T00:42:48;8.98;;;1.80;;
54191;SDS011;40101;53.002;6.488;2023-02-03T00:45:14;6.10;;;1.67;;
54191;SDS011;40101;53.002;6.488;2023-02-03T00:47:40;6.38;;;2.08;;
54191;SDS011;40101;53.002;6.488;2023-02-03T00:50:06;6.68;;;1.98;;
54191;SDS011;40101;53.002;6.488;2023-02-03T00:52:32;10.27;;;1.98;;
54191;SDS011;40101;53.002;6.488;2023-02-03T00:54:58;5.55;;;2.22;;
54191;SDS011;40101;53.002;6.488;2023-02-03T00:57:23;7.75;;;1.63;;
54191;SDS011;40101;53.002;6.488;2023-02-03T00:59:49;6.35;;;2.70;;
54191;SDS011;40101;53.002;6.488;2023-02-03T01:02:15;7.97;;;2.05;;
54191;SDS011;40101;53.002;6.488;2023-02-03T01:04:44;12.00;;;2.22;;
54191;SDS011;40101;53.002;6.488;2023-02-03T01:07:09;10.05;;;2.20;;
54191;SDS011;40101;53.002;6.488;2023-02-03T01:09:35;10.32;;;2.45;;
54191;SDS011;40101;53.002;6.488;2023-02-03T01:12:02;9.60;;;1.85;;
54191;SDS011;40101;53.002;6.488;2023-02-03T01:14:29;7.68;;;2.15;;
54191;SDS011;40101;53.002;6.488;2023-02-03T01:16:55;12.48;;;2.33;;
54191;SDS011;40101;53.002;6.488;2023-02-03T01:19:21;13.88;;;2.47;;
54191;SDS011;40101;53.002;6.488;2023-02-03T01:21:46;13.82;;;2.25;;
54191;SDS011;40101;53.002;6.488;2023-02-03T01:24:12;14.15;;;2.75;;
54191;SDS011;40101;53.002;6.488;2023-02-03T01:26:41;10.95;;;2.25;;
54191;SDS011;40101;53.002;6.488;2023-02-03T01:29:07;6.57;;;1.90;;
54191;SDS011;40101;53.002;6.488;2023-02-03T01:31:34;5.05;;;1.70;;
54191;SDS011;40101;53.002;6.488;2023-02-03T01:34:03;10.65;;;2.35;;
54191;SDS011;40101;53.002;6.488;2023-02-03T01:36:31;13.55;;;2.63;;
54191;SDS011;40101;53.002;6.488;2023-02-03T01:38:59;7.57;;;2.35;;
54191;SDS011;40101;53.002;6.488;2023-02-03T01:41:26;8.07;;;2.13;;
54191;SDS011;40101;53.002;6.488;2023-02-03T01:43:54;12.15;;;3.03;;
54191;SDS011;40101;53.002;6.488;2023-02-03T01:48:49;10.02;;;2.97;;
54191;SDS011;40101;53.002;6.488;2023-02-03T01:51:16;10.65;;;1.85;;
54191;SDS011;40101;53.002;6.488;2023-02-03T01:53:41;6.72;;;2.58;;
54191;SDS011;40101;53.002;6.488;2023-02-03T01:56:08;14.43;;;2.80;;
54191;SDS011;40101;53.002;6.488;2023-02-03T01:58:36;13.32;;;2.95;;
54191;SDS011;40101;53.002;6.488;2023-02-03T02:01:05;9.63;;;2.40;;
54191;SDS011;40101;53.002;6.488;2023-02-03T02:03:37;18.00;;;2.17;;
54191;SDS011;40101;53.002;6.488;2023-02-03T02:06:14;6.40;;;2.75;;
54191;SDS011;40101;53.002;6.488;2023-02-03T02:08:41;7.88;;;2.03;;
54191;SDS011;40101;53.002;6.488;2023-02-03T02:11:09;11.70;;;2.53;;
54191;SDS011;40101;53.002;6.488;2023-02-03T02:13:35;8.88;;;3.10;;
54191;SDS011;40101;53.002;6.488;2023-02-03T02:16:14;9.02;;;2.88;;
54191;SDS011;40101;53.002;6.488;2023-02-03T02:30:02;9.50;;;2.35;;
54191;SDS011;40101;53.002;6.488;2023-02-03T02:40:32;11.88;;;2.08;;
54191;SDS011;40101;53.002;6.488;2023-02-03T02:43:10;10.85;;;2.30;;
54191;SDS011;40101;53.002;6.488;2023-02-03T02:46:02;8.60;;;2.38;;
54191;SDS011;40101;53.002;6.488;2023-02-03T02:51:24;9.32;;;2.10;;
54191;SDS011;40101;53.002;6.488;2023-02-03T02:53:56;6.15;;;2.30;;
54191;SDS011;40101;53.002;6.488;2023-02-03T02:56:29;13.27;;;2.75;;
54191;SDS011;40101;53.002;6.488;2023-02-03T02:58:57;7.82;;;1.75;;
54191;SDS011;40101;53.002;6.488;2023-02-03T03:01:24;9.48;;;2.10;;
54191;SDS011;40101;53.002;6.488;2023-02-03T03:03:50;10.65;;;2.60;;
54191;SDS011;40101;53.002;6.488;2023-02-03T03:09:04;7.00;;;2.33;;
54191;SDS011;40101;53.002;6.488;2023-02-03T03:11:36;9.13;;;1.83;;
54191;SDS011;40101;53.002;6.488;2023-02-03T03:14:07;8.98;;;2.42;;
54191;SDS011;40101;53.002;6.488;2023-02-03T03:16:37;9.75;;;2.72;;
54191;SDS011;40101;53.002;6.488;2023-02-03T03:19:12;11.65;;;3.85;;
54191;SDS011;40101;53.002;6.488;2023-02-03T03:21:57;13.68;;;3.00;;
54191;SDS011;40101;53.002;6.488;2023-02-03T03:24:30;9.50;;;2.65;;
54191;SDS011;40101;53.002;6.488;2023-02-03T03:27:04;14.45;;;3.70;;
54191;SDS011;40101;53.002;6.488;2023-02-03T03:29:41;13.95;;;2.72;;
54191;SDS011;40101;53.002;6.488;2023-02-03T03:32:13;8.50;;;2.03;;
54191;SDS011;40101;53.002;6.488;2023-02-03T03:34:38;10.88;;;2.55;;
54191;SDS011;40101;53.002;6.488;2023-02-03T03:42:30;9.13;;;2.35;;
54191;SDS011;40101;53.002;6.488;2023-02-03T03:45:13;8.38;;;2.30;;
54191;SDS011;40101;53.002;6.488;2023-02-03T03:47:49;12.37;;;2.13;;
54191;SDS011;40101;53.002;6.488;2023-02-03T03:50:21;12.77;;;3.35;;
54191;SDS011;40101;53.002;6.488;2023-02-03T03:52:51;7.15;;;1.80;;
54191;SDS011;40101;53.002;6.488;2023-02-03T03:55:19;7.88;;;2.45;;
54191;SDS011;40101;53.002;6.488;2023-02-03T03:58:02;9.45;;;2.05;;
54191;SDS011;40101;53.002;6.488;2023-02-03T04:00:32;11.60;;;2.07;;
54191;SDS011;40101;53.002;6.488;2023-02-03T04:03:01;9.75;;;2.60;;
54191;SDS011;40101;53.002;6.488;2023-02-03T04:05:32;10.93;;;3.03;;
54191;SDS011;40101;53.002;6.488;2023-02-03T04:07:59;7.15;;;1.63;;
54191;SDS011;40101;53.002;6.488;2023-02-03T04:10:34;12.38;;;2.97;;
54191;SDS011;40101;53.002;6.488;2023-02-03T04:13:01;8.90;;;2.00;;
54191;SDS011;40101;53.002;6.488;2023-02-03T04:15:28;8.43;;;2.13;;
54191;SDS011;40101;53.002;6.488;2023-02-03T04:17:54;7.35;;;2.13;;
54191;SDS011;40101;53.002;6.488;2023-02-03T04:20:21;10.45;;;2.25;;
54191;SDS011;40101;53.002;6.488;2023-02-03T04:22:47;11.65;;;2.38;;
54191;SDS011;40101;53.002;6.488;2023-02-03T04:25:13;8.52;;;2.92;;
54191;SDS011;40101;53.002;6.488;2023-02-03T04:27:39;14.52;;;2.10;;
54191;SDS011;40101;53.002;6.488;2023-02-03T04:30:04;11.80;;;3.22;;
54191;SDS011;40101;53.002;6.488;2023-02-03T04:32:30;8.05;;;2.22;;
54191;SDS011;40101;53.002;6.488;2023-02-03T04:34:57;8.45;;;2.47;;
54191;SDS011;40101;53.002;6.488;2023-02-03T04:37:23;10.50;;;2.38;;
54191;SDS011;40101;53.002;6.488;2023-02-03T04:39:51;10.82;;;2.65;;
54191;SDS011;40101;53.002;6.488;2023-02-03T04:42:17;12.00;;;2.00;;
54191;SDS011;40101;53.002;6.488;2023-02-03T04:44:43;12.63;;;2.47;;
54191;SDS011;40101;53.002;6.488;2023-02-03T04:47:09;9.32;;;2.53;;
54191;SDS011;40101;53.002;6.488;2023-02-03T04:49:35;13.57;;;2.20;;
54191;SDS011;40101;53.002;6.488;2023-02-03T04:52:00;13.25;;;3.08;;
54191;SDS011;40101;53.002;6.488;2023-02-03T04:54:26;11.75;;;2.63;;
54191;SDS011;40101;53.002;6.488;2023-02-03T04:56:52;7.97;;;2.28;;
54191;SDS011;40101;53.002;6.488;2023-02-03T04:59:17;13.63;;;2.20;;
54191;SDS011;40101;53.002;6.488;2023-02-03T05:01:43;12.60;;;3.42;;
54191;SDS011;40101;53.002;6.488;2023-02-03T05:04:09;10.07;;;2.55;;
54191;SDS011;40101;53.002;6.488;2023-02-03T05:06:34;11.25;;;2.00;;
54191;SDS011;40101;53.002;6.488;2023-02-03T05:09:00;15.25;;;2.85;;
54191;SDS011;40101;53.002;6.488;2023-02-03T05:11:26;16.15;;;3.15;;
54191;SDS011;40101;53.002;6.488;2023-02-03T05:13:54;10.20;;;1.95;;
54191;SDS011;40101;53.002;6.488;2023-02-03T05:16:20;10.38;;;2.15;;
54191;SDS011;40101;53.002;6.488;2023-02-03T05:18:46;16.17;;;2.70;;
54191;SDS011;40101;53.002;6.488;2023-02-03T05:21:11;7.00;;;2.20;;
54191;SDS011;40101;53.002;6.488;2023-02-03T05:23:37;15.57;;;3.33;;
54191;SDS011;40101;53.002;6.488;2023-02-03T05:26:03;15.00;;;2.40;;
54191;SDS011;40101;53.002;6.488;2023-02-03T05:28:29;9.32;;;3.13;;
54191;SDS011;40101;53.002;6.488;2023-02-03T05:30:58;9.02;;;2.35;;
54191;SDS011;40101;53.002;6.488;2023-02-03T05:33:24;12.10;;;2.42;;
54191;SDS011;40101;53.002;6.488;2023-02-03T05:35:50;7.40;;;2.20;;
54191;SDS011;40101;53.002;6.488;2023-02-03T05:38:16;13.13;;;2.95;;
54191;SDS011;40101;53.002;6.488;2023-02-03T05:40:41;23.38;;;4.50;;
54191;SDS011;40101;53.002;6.488;2023-02-03T05:43:26;15.75;;;2.20;;
54191;SDS011;40101;53.002;6.488;2023-02-03T05:45:52;15.55;;;2.83;;
54191;SDS011;40101;53.002;6.488;2023-02-03T05:48:23;11.50;;;2.25;;
54191;SDS011;40101;53.002;6.488;2023-02-03T05:50:48;10.75;;;2.88;;
54191;SDS011;40101;53.002;6.488;2023-02-03T05:53:14;12.43;;;2.45;;
54191;SDS011;40101;53.002;6.488;2023-02-03T05:55:40;10.63;;;3.03;;
54191;SDS011;40101;53.002;6.488;2023-02-03T05:58:05;11.95;;;2.55;;
54191;SDS011;40101;53.002;6.488;2023-02-03T06:00:31;13.80;;;2.63;;
54191;SDS011;40101;53.002;6.488;2023-02-03T06:02:57;14.90;;;3.90;;
54191;SDS011;40101;53.002;6.488;2023-02-03T06:05:26;12.30;;;2.45;;
54191;SDS011;40101;53.002;6.488;2023-02-03T06:07:52;7.40;;;2.20;;
54191;SDS011;40101;53.002;6.488;2023-02-03T06:10:18;9.52;;;2.72;;
54191;SDS011;40101;53.002;6.488;2023-02-03T06:12:45;13.60;;;2.28;;
54191;SDS011;40101;53.002;6.488;2023-02-03T06:15:11;14.90;;;3.00;;
54191;SDS011;40101;53.002;6.488;2023-02-03T06:17:36;15.45;;;3.58;;
54191;SDS011;40101;53.002;6.488;2023-02-03T06:20:03;13.68;;;2.95;;
54191;SDS011;40101;53.002;6.488;2023-02-03T06:22:32;13.18;;;4.55;;
54191;SDS011;40101;53.002;6.488;2023-02-03T06:24:58;16.20;;;2.88;;
54191;SDS011;40101;53.002;6.488;2023-02-03T06:27:24;16.70;;;3.08;;
54191;SDS011;40101;53.002;6.488;2023-02-03T06:29:51;12.25;;;3.10;;
54191;SDS011;40101;53.002;6.488;2023-02-03T06:32:16;12.27;;;3.20;;
54191;SDS011;40101;53.002;6.488;2023-02-03T06:34:42;15.98;;;3.50;;
54191;SDS011;40101;53.002;6.488;2023-02-03T06:37:07;8.77;;;3.17;;
54191;SDS011;40101;53.002;6.488;2023-02-03T06:39:33;13.98;;;2.75;;
54191;SDS011;40101;53.002;6.488;2023-02-03T06:41:59;20.52;;;4.13;;
54191;SDS011;40101;53.002;6.488;2023-02-03T06:44:25;16.15;;;3.90;;
54191;SDS011;40101;53.002;6.488;2023-02-03T06:46:51;13.05;;;2.97;;
54191;SDS011;40101;53.002;6.488;2023-02-03T06:49:16;16.45;;;3.42;;
54191;SDS011;40101;53.002;6.488;2023-02-03T06:51:43;19.58;;;3.33;;
54191;SDS011;40101;53.002;6.488;2023-02-03T06:54:09;10.88;;;2.72;;
54191;SDS011;40101;53.002;6.488;2023-02-03T06:56:36;15.38;;;4.97;;
54191;SDS011;40101;53.002;6.488;2023-02-03T06:59:02;12.75;;;3.53;;
54191;SDS011;40101;53.002;6.488;2023-02-03T07:01:28;10.68;;;2.67;;
54191;SDS011;40101;53.002;6.488;2023-02-03T07:03:55;23.25;;;4.45;;
54191;SDS011;40101;53.002;6.488;2023-02-03T07:06:26;15.90;;;3.15;;
54191;SDS011;40101;53.002;6.488;2023-02-03T07:08:55;18.80;;;4.18;;
54191;SDS011;40101;53.002;6.488;2023-02-03T07:11:21;18.63;;;4.30;;
54191;SDS011;40101;53.002;6.488;2023-02-03T07:13:46;15.10;;;3.92;;
54191;SDS011;40101;53.002;6.488;2023-02-03T07:16:12;15.52;;;3.33;;
54191;SDS011;40101;53.002;6.488;2023-02-03T07:18:38;19.73;;;3.83;;
54191;SDS011;40101;53.002;6.488;2023-02-03T07:21:04;20.60;;;3.58;;
54191;SDS011;40101;53.002;6.488;2023-02-03T07:23:31;19.65;;;4.78;;
54191;SDS011;40101;53.002;6.488;2023-02-03T07:26:00;16.23;;;3.40;;
54191;SDS011;40101;53.002;6.488;2023-02-03T07:28:29;11.50;;;2.70;;
54191;SDS011;40101;53.002;6.488;2023-02-03T07:30:55;15.23;;;3.55;;
54191;SDS011;40101;53.002;6.488;2023-02-03T07:33:22;16.40;;;4.28;;
54191;SDS011;40101;53.002;6.488;2023-02-03T07:35:51;19.17;;;3.42;;
54191;SDS011;40101;53.002;6.488;2023-02-03T07:38:17;19.17;;;4.43;;
54191;SDS011;40101;53.002;6.488;2023-02-03T07:40:43;20.80;;;4.38;;
54191;SDS011;40101;53.002;6.488;2023-02-03T07:43:09;15.85;;;4.50;;
54191;SDS011;40101;53.002;6.488;2023-02-03T07:45:35;19.20;;;4.47;;
54191;SDS011;40101;53.002;6.488;2023-02-03T07:48:00;19.10;;;4.45;;
54191;SDS011;40101;53.002;6.488;2023-02-03T07:50:26;21.55;;;4.43;;
54191;SDS011;40101;53.002;6.488;2023-02-03T07:52:52;19.48;;;4.47;;
54191;SDS011;40101;53.002;6.488;2023-02-03T07:55:17;23.75;;;4.88;;
54191;SDS011;40101;53.002;6.488;2023-02-03T07:57:43;18.50;;;4.65;;
54191;SDS011;40101;53.002;6.488;2023-02-03T08:00:13;15.38;;;3.80;;
54191;SDS011;40101;53.002;6.488;2023-02-03T08:02:40;23.25;;;5.32;;
54191;SDS011;40101;53.002;6.488;2023-02-03T08:05:07;14.27;;;4.80;;
54191;SDS011;40101;53.002;6.488;2023-02-03T08:07:33;23.42;;;3.85;;
54191;SDS011;40101;53.002;6.488;2023-02-03T08:09:59;20.08;;;4.45;;
54191;SDS011;40101;53.002;6.488;2023-02-03T08:12:25;14.82;;;4.20;;
54191;SDS011;40101;53.002;6.488;2023-02-03T08:14:51;21.83;;;6.07;;
54191;SDS011;40101;53.002;6.488;2023-02-03T08:17:17;27.58;;;5.88;;
54191;SDS011;40101;53.002;6.488;2023-02-03T08:19:42;18.95;;;4.03;;
54191;SDS011;40101;53.002;6.488;2023-02-03T08:22:08;20.17;;;4.03;;
54191;SDS011;40101;53.002;6.488;2023-02-03T08:24:40;19.95;;;5.57;;
54191;SDS011;40101;53.002;6.488;2023-02-03T08:27:10;20.05;;;5.63;;
54191;SDS011;40101;53.002;6.488;2023-02-03T08:29:37;21.60;;;4.68;;
54191;SDS011;40101;53.002;6.488;2023-02-03T08:32:02;25.30;;;5.35;;
54191;SDS011;40101;53.002;6.488;2023-02-03T08:34:28;20.27;;;4.95;;
54191;SDS011;40101;53.002;6.488;2023-02-03T08:36:54;22.58;;;4.03;;
54191;SDS011;40101;53.002;6.488;2023-02-03T08:39:19;20.70;;;4.32;;
54191;SDS011;40101;53.002;6.488;2023-02-03T08:41:45;34.65;;;7.15;;
54191;SDS011;40101;53.002;6.488;2023-02-03T08:44:11;20.55;;;3.72;;
54191;SDS011;40101;53.002;6.488;2023-02-03T08:46:37;27.60;;;6.43;;
54191;SDS011;40101;53.002;6.488;2023-02-03T08:49:08;21.88;;;5.07;;
54191;SDS011;40101;53.002;6.488;2023-02-03T08:51:36;16.63;;;4.65;;
54191;SDS011;40101;53.002;6.488;2023-02-03T08:54:02;32.03;;;5.72;;
54191;SDS011;40101;53.002;6.488;2023-02-03T08:56:27;28.38;;;6.40;;
54191;SDS011;40101;53.002;6.488;2023-02-03T08:58:53;22.30;;;5.40;;
54191;SDS011;40101;53.002;6.488;2023-02-03T09:01:19;27.15;;;5.90;;
54191;SDS011;40101;53.002;6.488;2023-02-03T09:03:45;23.45;;;6.53;;
54191;SDS011;40101;53.002;6.488;2023-02-03T09:06:11;23.10;;;5.22;;
54191;SDS011;40101;53.002;6.488;2023-02-03T09:08:41;24.13;;;4.40;;
54191;SDS011;40101;53.002;6.488;2023-02-03T09:11:08;28.75;;;5.43;;
54191;SDS011;40101;53.002;6.488;2023-02-03T09:13:35;22.95;;;5.88;;
54191;SDS011;40101;53.002;6.488;2023-02-03T09:16:01;22.45;;;4.22;;
54191;SDS011;40101;53.002;6.488;2023-02-03T09:18:27;28.02;;;5.25;;
54191;SDS011;40101;53.002;6.488;2023-02-03T09:20:58;38.10;;;7.55;;
54191;SDS011;40101;53.002;6.488;2023-02-03T09:23:25;27.85;;;6.25;;
54191;SDS011;40101;53.002;6.488;2023-02-03T09:25:51;39.13;;;8.02;;
54191;SDS011;40101;53.002;6.488;2023-02-03T09:28:17;27.33;;;6.47;;
54191;SDS011;40101;53.002;6.488;2023-02-03T09:30:43;27.95;;;5.07;;
54191;SDS011;40101;53.002;6.488;2023-02-03T09:33:08;23.48;;;5.88;;
54191;SDS011;40101;53.002;6.488;2023-02-03T09:35:34;35.22;;;6.05;;
54191;SDS011;40101;53.002;6.488;2023-02-03T09:37:59;25.27;;;5.68;;
54191;SDS011;40101;53.002;6.488;2023-02-03T09:40:26;24.73;;;5.30;;
54191;SDS011;40101;53.002;6.488;2023-02-03T09:43:01;25.63;;;5.45;;
54191;SDS011;40101;53.002;6.488;2023-02-03T09:45:37;31.65;;;5.68;;
54191;SDS011;40101;53.002;6.488;2023-02-03T09:48:04;22.55;;;5.30;;
54191;SDS011;40101;53.002;6.488;2023-02-03T09:50:36;39.60;;;6.93;;
54191;SDS011;40101;53.002;6.488;2023-02-03T09:53:17;27.55;;;5.82;;
54191;SDS011;40101;53.002;6.488;2023-02-03T09:55:51;28.40;;;6.88;;
54191;SDS011;40101;53.002;6.488;2023-02-03T09:58:18;39.03;;;7.40;;
54191;SDS011;40101;53.002;6.488;2023-02-03T10:00:50;22.38;;;5.60;;
54191;SDS011;40101;53.002;6.488;2023-02-03T10:03:37;27.50;;;6.45;;
54191;SDS011;40101;53.002;6.488;2023-02-03T10:17:52;31.65;;;5.43;;
54191;SDS011;40101;53.002;6.488;2023-02-03T10:25:36;25.50;;;5.03;;
54191;SDS011;40101;53.002;6.488;2023-02-03T10:28:14;29.58;;;6.90;;
54191;SDS011;40101;53.002;6.488;2023-02-03T10:30:44;29.55;;;5.38;;
54191;SDS011;40101;53.002;6.488;2023-02-03T10:33:17;28.75;;;5.18;;
54191;SDS011;40101;53.002;6.488;2023-02-03T10:35:51;26.02;;;4.97;;
54191;SDS011;40101;53.002;6.488;2023-02-03T10:38:22;29.70;;;5.43;;
54191;SDS011;40101;53.002;6.488;2023-02-03T10:40:54;24.05;;;5.68;;
54191;SDS011;40101;53.002;6.488;2023-02-03T10:43:20;30.20;;;7.18;;
54191;SDS011;40101;53.002;6.488;2023-02-03T10:46:04;33.22;;;6.40;;
54191;SDS011;40101;53.002;6.488;2023-02-03T10:48:30;23.10;;;5.85;;
54191;SDS011;40101;53.002;6.488;2023-02-03T10:50:55;33.92;;;5.93;;
54191;SDS011;40101;53.002;6.488;2023-02-03T10:53:30;27.33;;;6.40;;
54191;SDS011;40101;53.002;6.488;2023-02-03T10:55:59;29.42;;;7.07;;
54191;SDS011;40101;53.002;6.488;2023-02-03T10:58:32;28.73;;;6.43;;
54191;SDS011;40101;53.002;6.488;2023-02-03T11:01:09;42.90;;;8.25;;
54191;SDS011;40101;53.002;6.488;2023-02-03T11:03:43;31.65;;;8.90;;
54191;SDS011;40101;53.002;6.488;2023-02-03T11:06:18;31.23;;;5.82;;
54191;SDS011;40101;53.002;6.488;2023-02-03T11:08:45;39.72;;;6.75;;
54191;SDS011;40101;53.002;6.488;2023-02-03T11:11:34;36.53;;;6.88;;
54191;SDS011;40101;53.002;6.488;2023-02-03T11:16:27;29.48;;;6.05;;
54191;SDS011;40101;53.002;6.488;2023-02-03T11:19:00;39.53;;;6.35;;
54191;SDS011;40101;53.002;6.488;2023-02-03T11:24:17;31.98;;;6.90;;
54191;SDS011;40101;53.002;6.488;2023-02-03T11:27:02;35.47;;;5.75;;
54191;SDS011;40101;53.002;6.488;2023-02-03T11:29:34;26.50;;;7.57;;
54191;SDS011;40101;53.002;6.488;2023-02-03T11:32:06;34.85;;;8.48;;
54191;SDS011;40101;53.002;6.488;2023-02-03T11:34:44;32.53;;;6.35;;
54191;SDS011;40101;53.002;6.488;2023-02-03T11:37:31;35.13;;;7.85;;
54191;SDS011;40101;53.002;6.488;2023-02-03T11:42:37;32.55;;;7.15;;
54191;SDS011;40101;53.002;6.488;2023-02-03T11:47:54;26.13;;;6.43;;
54191;SDS011;40101;53.002;6.488;2023-02-03T11:58:58;35.33;;;6.82;;
54191;SDS011;40101;53.002;6.488;2023-02-03T12:07:18;36.92;;;7.00;;
54191;SDS011;40101;53.002;6.488;2023-02-03T12:09:50;30.77;;;6.05;;
54191;SDS011;40101;53.002;6.488;2023-02-03T12:15:23;24.33;;;5.82;;
54191;SDS011;40101;53.002;6.488;2023-02-03T12:18:19;41.00;;;9.10;;
54191;SDS011;40101;53.002;6.488;2023-02-03T12:26:55;36.30;;;7.72;;
54191;SDS011;40101;53.002;6.488;2023-02-03T12:29:24;35.15;;;7.70;;
54191;SDS011;40101;53.002;6.488;2023-02-03T12:34:51;31.27;;;5.93;;
54191;SDS011;40101;53.002;6.488;2023-02-03T12:37:27;33.25;;;6.53;;
54191;SDS011;40101;53.002;6.488;2023-02-03T12:40:12;37.72;;;7.75;;
54191;SDS011;40101;53.002;6.488;2023-02-03T12:45:41;42.63;;;8.88;;
54191;SDS011;40101;53.002;6.488;2023-02-03T12:48:25;41.63;;;8.73;;
54191;SDS011;40101;53.002;6.488;2023-02-03T12:51:01;29.60;;;6.40;;
54191;SDS011;40101;53.002;6.488;2023-02-03T12:53:34;32.22;;;7.20;;
54191;SDS011;40101;53.002;6.488;2023-02-03T12:56:12;36.90;;;7.60;;
54191;SDS011;40101;53.002;6.488;2023-02-03T13:01:34;35.58;;;7.43;;
54191;SDS011;40101;53.002;6.488;2023-02-03T13:04:05;31.45;;;6.82;;
54191;SDS011;40101;53.002;6.488;2023-02-03T13:07:23;25.45;;;6.88;;
54191;SDS011;40101;53.002;6.488;2023-02-03T13:10:30;33.30;;;6.75;;
54191;SDS011;40101;53.002;6.488;2023-02-03T13:13:02;37.45;;;7.05;;
54191;SDS011;40101;53.002;6.488;2023-02-03T13:20:39;33.13;;;7.97;;
54191;SDS011;40101;53.002;6.488;2023-02-03T13:23:06;33.10;;;6.00;;
54191;SDS011;40101;53.002;6.488;2023-02-03T13:41:54;37.92;;;9.20;;
54191;SDS011;40101;53.002;6.488;2023-02-03T13:44:32;45.22;;;9.05;;
54191;SDS011;40101;53.002;6.488;2023-02-03T13:46:59;30.25;;;6.60;;
54191;SDS011;40101;53.002;6.488;2023-02-03T13:49:33;39.28;;;7.47;;
54191;SDS011;40101;53.002;6.488;2023-02-03T13:52:00;33.43;;;6.97;;
54191;SDS011;40101;53.002;6.488;2023-02-03T13:54:29;25.88;;;6.18;;
54191;SDS011;40101;53.002;6.488;2023-02-03T13:57:02;32.47;;;7.38;;
54191;SDS011;40101;53.002;6.488;2023-02-03T14:12:33;22.48;;;5.57;;
54191;SDS011;40101;53.002;6.488;2023-02-03T14:15:01;30.65;;;7.25;;
54191;SDS011;40101;53.002;6.488;2023-02-03T14:22:58;31.70;;;6.47;;
54191;SDS011;40101;53.002;6.488;2023-02-03T14:25:30;24.17;;;7.13;;
54191;SDS011;40101;53.002;6.488;2023-02-03T14:28:04;30.70;;;6.68;;
54191;SDS011;40101;53.002;6.488;2023-02-03T14:33:56;22.75;;;5.55;;
54191;SDS011;40101;53.002;6.488;2023-02-03T14:39:31;24.17;;;5.85;;
54191;SDS011;40101;53.002;6.488;2023-02-03T14:42:12;29.45;;;6.47;;
54191;SDS011;40101;53.002;6.488;2023-02-03T14:48:08;19.55;;;5.82;;
54191;SDS011;40101;53.002;6.488;2023-02-03T14:54:05;23.15;;;6.47;;
54191;SDS011;40101;53.002;6.488;2023-02-03T14:56:45;22.00;;;6.00;;
54191;SDS011;40101;53.002;6.488;2023-02-03T15:02:30;20.45;;;4.45;;
54191;SDS011;40101;53.002;6.488;2023-02-03T15:07:37;25.23;;;5.63;;
54191;SDS011;40101;53.002;6.488;2023-02-03T15:12:45;26.33;;;6.85;;
54191;SDS011;40101;53.002;6.488;2023-02-03T15:15:29;23.88;;;6.95;;
54191;SDS011;40101;53.002;6.488;2023-02-03T15:17:58;26.25;;;6.50;;
54191;SDS011;40101;53.002;6.488;2023-02-03T15:20:46;22.10;;;5.80;;
54191;SDS011;40101;53.002;6.488;2023-02-03T15:23:18;18.23;;;4.82;;
54191;SDS011;40101;53.002;6.488;2023-02-03T15:25:51;27.30;;;5.45;;
54191;SDS011;40101;53.002;6.488;2023-02-03T15:28:19;24.25;;;5.25;;
54191;SDS011;40101;53.002;6.488;2023-02-03T15:30:46;24.25;;;4.47;;
54191;SDS011;40101;53.002;6.488;2023-02-03T15:33:16;24.35;;;5.88;;
54191;SDS011;40101;53.002;6.488;2023-02-03T15:35:47;36.25;;;6.05;;
54191;SDS011;40101;53.002;6.488;2023-02-03T15:38:26;25.80;;;4.53;;
54191;SDS011;40101;53.002;6.488;2023-02-03T15:40:58;24.00;;;5.10;;
54191;SDS011;40101;53.002;6.488;2023-02-03T15:43:26;25.38;;;5.63;;
54191;SDS011;40101;53.002;6.488;2023-02-03T15:49:37;22.27;;;4.90;;
54191;SDS011;40101;53.002;6.488;2023-02-03T15:52:15;20.02;;;4.32;;
54191;SDS011;40101;53.002;6.488;2023-02-03T15:59:00;25.95;;;4.57;;
54191;SDS011;40101;53.002;6.488;2023-02-03T16:19:29;21.27;;;4.88;;
54191;SDS011;40101;53.002;6.488;2023-02-03T16:22:02;33.25;;;8.32;;
54191;SDS011;40101;53.002;6.488;2023-02-03T16:35:08;30.70;;;6.93;;
54191;SDS011;40101;53.002;6.488;2023-02-03T16:41:04;34.00;;;7.25;;
54191;SDS011;40101;53.002;6.488;2023-02-03T16:58:35;29.17;;;6.20;;
54191;SDS011;40101;53.002;6.488;2023-02-03T17:02:02;31.17;;;7.95;;
54191;SDS011;40101;53.002;6.488;2023-02-03T17:07:35;29.83;;;8.77;;
54191;SDS011;40101;53.002;6.488;2023-02-03T17:13:12;29.70;;;6.30;;
54191;SDS011;40101;53.002;6.488;2023-02-03T17:16:06;33.60;;;6.25;;
54191;SDS011;40101;53.002;6.488;2023-02-03T17:19:36;27.05;;;6.20;;
54191;SDS011;40101;53.002;6.488;2023-02-03T17:22:43;31.83;;;6.05;;
54191;SDS011;40101;53.002;6.488;2023-02-03T17:26:05;32.22;;;6.40;;
54191;SDS011;40101;53.002;6.488;2023-02-03T17:29:59;34.35;;;7.13;;
54191;SDS011;40101;53.002;6.488;2023-02-03T17:41:59;34.95;;;5.00;;
54191;SDS011;40101;53.002;6.488;2023-02-03T17:45:09;27.17;;;5.82;;
54191;SDS011;40101;53.002;6.488;2023-02-03T17:50:41;29.00;;;7.18;;
54191;SDS011;40101;53.002;6.488;2023-02-03T17:53:09;35.63;;;7.03;;
54191;SDS011;40101;53.002;6.488;2023-02-03T17:55:44;34.85;;;7.95;;
54191;SDS011;40101;53.002;6.488;2023-02-03T17:58:59;23.33;;;5.30;;
54191;SDS011;40101;53.002;6.488;2023-02-03T18:01:47;31.60;;;6.68;;
54191;SDS011;40101;53.002;6.488;2023-02-03T18:04:24;33.58;;;7.88;;
54191;SDS011;40101;53.002;6.488;2023-02-03T18:06:50;26.50;;;5.82;;
54191;SDS011;40101;53.002;6.488;2023-02-03T18:11:47;33.53;;;7.35;;
54191;SDS011;40101;53.002;6.488;2023-02-03T18:14:19;26.20;;;6.70;;
54191;SDS011;40101;53.002;6.488;2023-02-03T18:16:52;30.15;;;6.20;;
54191;SDS011;40101;53.002;6.488;2023-02-03T18:25:45;26.35;;;6.28;;
54191;SDS011;40101;53.002;6.488;2023-02-03T18:31:43;33.35;;;6.63;;
54191;SDS011;40101;53.002;6.488;2023-02-03T18:34:13;32.80;;;7.93;;
54191;SDS011;40101;53.002;6.488;2023-02-03T18:36:40;36.40;;;7.78;;
54191;SDS011;40101;53.002;6.488;2023-02-03T18:39:12;39.25;;;7.13;;
54191;SDS011;40101;53.002;6.488;2023-02-03T18:42:06;40.30;;;10.05;;
54191;SDS011;40101;53.002;6.488;2023-02-03T18:44:50;38.10;;;10.00;;
54191;SDS011;40101;53.002;6.488;2023-02-03T18:47:32;33.78;;;7.57;;
54191;SDS011;40101;53.002;6.488;2023-02-03T18:52:38;32.42;;;7.38;;
54191;SDS011;40101;53.002;6.488;2023-02-03T19:02:51;33.58;;;6.68;;
54191;SDS011;40101;53.002;6.488;2023-02-03T19:15:23;29.77;;;7.53;;
54191;SDS011;40101;53.002;6.488;2023-02-03T19:25:21;31.10;;;6.18;;